Terminal Aerodrome Forecast
Issued by NWS

Home | Current Version | Previous Version | Graphics & Text | Print | Product List | Glossary On
Versions: 1 2 3 4 5 6 7 8 9 10 11 12 13 14 15 16 17 18 19 20 21
000
FTUS43 KBIS 230938 AAA
TAFMOT
TAF AMD
KMOT 230938Z 2310/2406 34010KT P6SM SCT008 BKN012 OVC025
     FM231700 35009KT P6SM BKN020
     FM232200 36009KT P6SM VCSH SCT025 BKN035
     FM240000 01010KT P6SM -SHRA OVC025
     FM240500 01008KT 6SM -SHRA BKN008 OVC010=

USA.gov is the U.S. government's official web portal to all federal, state and local government web resources and services.